Time;durP1;ratioP1;P1;durP2;ratioP2;P2;SDS_P1;SDS_P2;PMS_P1;PMS_P2;Temp;Humidity;BMP_temperature;BMP_pressure;BME280_temperature;BME280_humidity;BME280_pressure;Samples;Min_cycle;Max_cycle;Signal;HPM_P1;HPM_P2
2022/12/20 11:40:21;;;;;;;28.97;20.77;;;;;;;6.04;95.83;99145.47;5129727;27;20569;-82
2022/12/20 11:43:00;;;;;;;31.87;21.47;;;;;;;6.30;92.28;99157.59;5127871;27;40127;-80
2022/12/20 11:45:35;;;;;;;28.53;20.47;;;;;;;6.29;90.83;99133.97;5111489;27;40968;-81
2022/12/20 11:48:32;;;;;;;28.47;21.13;;;;;;;6.48;89.50;99163.84;5127296;27;43974;-84
2022/12/20 11:51:03;;;;;;;27.40;19.87;;;;;;;6.53;88.73;99135.59;5083570;27;42690;-81
2022/12/20 11:53:37;;;;;;;24.47;17.87;;;;;;;6.48;88.48;99116.50;5127863;27;39933;-81
2022/12/20 11:56:12;;;;;;;25.77;18.77;;;;;;;6.64;87.93;99128.09;5125323;27;42593;-80
2022/12/20 11:58:50;;;;;;;26.57;19.83;;;;;;;6.66;87.88;99134.16;5126794;27;42932;-83
2022/12/20 12:01:21;;;;;;;28.63;19.63;;;;;;;6.64;87.03;99122.84;5111014;27;41053;-82
2022/12/20 12:03:59;;;;;;;26.20;19.90;;;;;;;6.60;86.52;99126.50;5128922;27;39635;-81
2022/12/20 12:06:30;;;;;;;26.77;19.27;;;;;;;6.55;86.51;99125.88;5128430;27;41697;-83
2022/12/20 12:09:08;;;;;;;27.77;18.77;;;;;;;6.58;86.13;99123.09;5127109;27;42368;-82
2022/12/20 12:11:42;;;;;;;25.10;19.20;;;;;;;6.56;86.19;99108.28;5110701;27;42517;-82
2022/12/20 12:14:19;;;;;;;27.87;19.07;;;;;;;6.64;85.38;99117.56;5110067;27;40066;-81
2022/12/20 12:16:52;;;;;;;27.83;19.80;;;;;;;6.62;85.12;99115.94;5111036;27;41901;-83
2022/12/20 12:19:19;;;;;;;27.93;19.87;;;;;;;6.56;84.90;99111.75;5128140;27;43329;-83
2022/12/20 12:21:54;;;;;;;29.07;21.00;;;;;;;6.33;83.41;99077.69;5110332;27;42726;-85
2022/12/20 12:24:51;;;;;;;28.17;20.13;;;;;;;6.30;83.66;99073.44;5110987;27;39268;-84
2022/12/20 12:27:24;;;;;;;30.77;20.30;;;;;;;6.50;84.23;99106.78;5106455;28;42050;-81
2022/12/20 12:29:53;;;;;;;25.47;19.17;;;;;;;6.33;83.86;99072.41;5090151;28;43644;-81
2022/12/20 12:32:30;;;;;;;32.87;22.70;;;;;;;6.45;82.72;99087.69;5111336;27;42180;-82
2022/12/20 12:35:13;;;;;;;31.77;20.23;;;;;;;6.46;82.90;99094.66;5126931;27;39056;-82
2022/12/20 12:37:54;;;;;;;30.83;22.30;;;;;;;6.43;81.57;99087.75;5110026;27;41446;-81
2022/12/20 12:40:50;;;;;;;29.77;21.67;;;;;;;6.31;81.80;99077.72;5115204;27;42967;-81
2022/12/20 12:43:51;;;;;;;29.80;20.27;;;;;;;6.36;82.19;99072.28;5092853;28;41346;-82
2022/12/20 12:46:26;;;;;;;30.00;20.93;;;;;;;6.30;82.08;99072.56;5075916;28;41714;-80
2022/12/20 12:49:06;;;;;;;28.73;20.27;;;;;;;6.31;82.13;99090.88;5093142;28;41826;-83
2022/12/20 12:57:02;;;;;;;30.37;20.53;;;;;;;6.22;81.88;99072.88;5128688;27;40501;-81
2022/12/20 12:59:51;;;;;;;28.97;20.20;;;;;;;6.30;82.03;99077.81;5138163;27;42364;-80
2022/12/20 13:02:50;;;;;;;23.53;18.50;;;;;;;6.30;82.11;99062.03;5155859;27;42526;-81
2022/12/20 13:05:33;;;;;;;25.07;17.83;;;;;;;6.34;82.35;99047.81;5120395;27;41756;-80
2022/12/20 13:08:01;;;;;;;28.07;19.13;;;;;;;6.49;82.11;99073.50;5109665;27;38867;-80
2022/12/20 13:11:08;;;;;;;26.93;19.63;;;;;;;6.53;81.91;99069.81;5100013;27;41695;-82
2022/12/20 13:13:36;;;;;;;31.07;20.97;;;;;;;6.44;81.89;99057.03;5113424;27;42724;-80
2022/12/20 13:16:12;;;;;;;26.30;18.23;;;;;;;6.45;82.05;99050.84;5116586;27;40907;-81
2022/12/20 13:19:00;;;;;;;30.63;21.50;;;;;;;6.46;81.76;99073.63;5116547;27;41599;-80
2022/12/20 13:21:38;;;;;;;25.30;19.20;;;;;;;6.40;81.84;99063.38;5100272;27;40779;-81
2022/12/20 13:27:30;;;;;;;23.13;17.63;;;;;;;6.28;82.04;99050.72;5078163;27;42524;-85
2022/12/20 13:33:23;;;;;;;30.70;20.57;;;;;;;5.99;81.65;99023.88;5097255;27;40875;-82
2022/12/20 15:26:57;;;;;;;38.57;23.77;;;;;;;2.35;100.00;98983.13;5108137;28;20559;-81
2022/12/20 15:29:26;;;;;;;35.03;23.00;;;;;;;2.82;100.00;99001.88;5108056;28;39075;-80
2022/12/20 15:32:04;;;;;;;34.43;23.83;;;;;;;3.31;100.00;98976.84;5109199;28;41349;-82
